Time;durP1;ratioP1;P1;durP2;ratioP2;P2;SDS_P1;SDS_P2;PMS_P1;PMS_P2;Temp;Humidity;BMP_temperature;BMP_pressure;BME280_temperature;BME280_humidity;BME280_pressure;Samples;Min_cycle;Max_cycle;Signal;HPM_P1;HPM_P2
2023/07/19 00:02:25;;;;;;;11.30;3.57;;;19.10;99.90;;;;;;5059921;28;20458;-41
2023/07/19 00:04:51;;;;;;;5.38;3.45;;;19.10;99.90;;;;;;5059235;28;20031;-41
2023/07/19 00:07:16;;;;;;;8.20;3.47;;;19.20;99.90;;;;;;5068055;28;20033;-41
2023/07/19 00:09:42;;;;;;;3.58;2.63;;;19.10;99.90;;;;;;5061900;28;20042;-41
2023/07/19 00:12:08;;;;;;;9.00;3.72;;;18.90;99.90;;;;;;5061552;28;20448;-41
2023/07/19 00:14:34;;;;;;;5.18;3.20;;;18.80;99.90;;;;;;5093160;28;20465;-38
2023/07/19 00:16:59;;;;;;;4.63;3.10;;;18.80;99.90;;;;;;5074915;28;20122;-40
2023/07/19 00:19:25;;;;;;;6.53;4.03;;;18.90;99.90;;;;;;5059173;28;20039;-38
2023/07/19 00:21:50;;;;;;;9.10;3.83;;;18.90;99.90;;;;;;5061914;28;20073;-39
2023/07/19 00:24:16;;;;;;;5.53;3.80;;;18.90;99.90;;;;;;5059433;28;20031;-38
2023/07/19 00:26:42;;;;;;;7.80;3.85;;;18.70;99.90;;;;;;5059491;28;20020;-39
2023/07/19 00:29:08;;;;;;;7.30;4.15;;;18.70;99.90;;;;;;5062833;28;20028;-41
2023/07/19 00:31:34;;;;;;;6.90;3.70;;;18.80;99.90;;;;;;5063534;28;20059;-41
2023/07/19 00:33:59;;;;;;;4.97;3.80;;;18.80;99.90;;;;;;5059350;28;20025;-41
2023/07/19 00:36:25;;;;;;;5.22;3.60;;;18.90;99.90;;;;;;5060506;28;20055;-39
2023/07/19 00:38:51;;;;;;;6.75;4.13;;;19.00;99.90;;;;;;5061505;28;20118;-37
2023/07/19 00:41:18;;;;;;;6.97;4.38;;;19.00;99.90;;;;;;5060126;28;20032;-41
2023/07/19 00:43:43;;;;;;;7.75;4.10;;;19.00;99.90;;;;;;5064050;28;20028;-41
2023/07/19 00:46:10;;;;;;;6.97;3.92;;;19.00;99.90;;;;;;5067420;28;20020;-40
2023/07/19 00:48:36;;;;;;;6.25;3.80;;;19.10;99.90;;;;;;5063385;28;20036;-39
2023/07/19 00:51:01;;;;;;;6.85;4.03;;;19.10;99.90;;;;;;5064097;28;20032;-38
2023/07/19 00:53:28;;;;;;;5.68;3.75;;;19.20;99.90;;;;;;5061286;28;20395;-40
2023/07/19 00:55:54;;;;;;;5.28;3.67;;;19.10;99.90;;;;;;5075561;28;20371;-40
2023/07/19 00:58:23;;;;;;;4.80;3.55;;;19.10;99.90;;;;;;5064688;28;20028;-41
2023/07/19 01:00:51;;;;;;;6.35;3.90;;;19.10;99.90;;;;;;5065622;28;20103;-33
2023/07/19 01:03:17;;;;;;;7.28;4.38;;;19.10;99.90;;;;;;5061135;28;20048;-34
2023/07/19 01:05:43;;;;;;;4.55;3.55;;;18.90;99.90;;;;;;5066165;28;20035;-33
2023/07/19 01:08:17;;;;;;;7.20;4.15;;;18.80;99.90;;;;;;5060924;28;20059;-37
2023/07/19 01:10:42;;;;;;;6.05;4.05;;;18.70;99.90;;;;;;5059434;28;20479;-34
2023/07/19 01:13:09;;;;;;;6.07;3.75;;;18.80;99.90;;;;;;5061393;28;20024;-35
2023/07/19 01:15:36;;;;;;;6.15;3.67;;;18.80;99.90;;;;;;5058717;28;20433;-32
2023/07/19 01:18:02;;;;;;;6.75;3.78;;;18.90;99.90;;;;;;5061274;28;20032;-33
2023/07/19 01:20:28;;;;;;;5.72;4.03;;;18.90;99.90;;;;;;5056664;28;20029;-34
2023/07/19 01:22:57;;;;;;;6.78;3.80;;;18.90;99.90;;;;;;5066719;28;20058;-34
2023/07/19 01:25:23;;;;;;;7.03;3.90;;;18.90;99.90;;;;;;5060321;28;20398;-32
2023/07/19 01:27:49;;;;;;;7.10;3.72;;;18.80;99.90;;;;;;5075123;28;20025;-33
2023/07/19 01:30:15;;;;;;;6.03;3.60;;;18.80;99.90;;;;;;5059424;28;20567;-36
2023/07/19 01:32:41;;;;;;;4.80;3.42;;;18.90;99.90;;;;;;5059269;28;20537;-34
2023/07/19 01:35:07;;;;;;;7.43;4.10;;;18.90;99.90;;;;;;5059926;28;20283;-33
2023/07/19 01:37:33;;;;;;;6.68;4.07;;;18.90;99.90;;;;;;5061894;28;20028;-33
2023/07/19 01:40:01;;;;;;;9.07;3.90;;;18.90;99.90;;;;;;5083366;28;20039;-33
2023/07/19 01:42:27;;;;;;;10.00;4.13;;;18.90;99.90;;;;;;5064444;28;20029;-33
2023/07/19 01:44:54;;;;;;;6.40;3.70;;;18.90;99.90;;;;;;5065935;28;20040;-34
2023/07/19 01:47:20;;;;;;;4.82;3.67;;;18.90;99.90;;;;;;5065924;28;20036;-33
2023/07/19 01:49:46;;;;;;;5.75;4.35;;;18.90;99.90;;;;;;5064744;28;20028;-33
2023/07/19 01:52:11;;;;;;;8.52;3.78;;;18.90;99.90;;;;;;5060796;28;20036;-33
2023/07/19 01:54:37;;;;;;;10.82;3.80;;;18.80;99.90;;;;;;5065899;28;20049;-34
2023/07/19 01:57:04;;;;;;;8.07;3.97;;;18.90;99.90;;;;;;5062620;28;20024;-33
2023/07/19 01:59:30;;;;;;;4.95;3.75;;;18.90;99.90;;;;;;5070330;28;20033;-33
2023/07/19 02:01:55;;;;;;;8.80;4.13;;;18.90;99.90;;;;;;5066799;28;20549;-32
2023/07/19 02:04:21;;;;;;;7.20;3.92;;;18.80;99.90;;;;;;5063386;28;20067;-33
2023/07/19 02:06:47;;;;;;;6.63;4.15;;;18.70;99.90;;;;;;5067334;28;20039;-33
2023/07/19 02:09:13;;;;;;;7.68;3.88;;;18.70;99.90;;;;;;5067788;28;20033;-30
2023/07/19 02:11:38;;;;;;;7.60;3.72;;;18.70;99.90;;;;;;5064770;28;20020;-32
2023/07/19 02:14:04;;;;;;;8.98;4.05;;;18.70;99.90;;;;;;5063016;28;20470;-31
2023/07/19 02:16:30;;;;;;;6.68;3.95;;;18.80;99.90;;;;;;5073496;28;20152;-31
2023/07/19 02:18:56;;;;;;;5.03;3.65;;;18.80;99.90;;;;;;5060647;28;20042;-31
2023/07/19 02:21:22;;;;;;;6.45;3.72;;;18.80;99.90;;;;;;5069160;28;20494;-30
2023/07/19 02:23:47;;;;;;;4.85;3.88;;;18.80;99.90;;;;;;5067301;28;20044;-30
2023/07/19 02:26:13;;;;;;;5.93;4.35;;;18.80;99.90;;;;;;5070054;28;20059;-31
2023/07/19 02:28:39;;;;;;;6.53;3.83;;;18.70;99.90;;;;;;5064159;28;20020;-30
2023/07/19 02:31:04;;;;;;;4.63;3.20;;;18.60;99.90;;;;;;5076871;28;20119;-31
2023/07/19 02:33:30;;;;;;;5.50;3.97;;;18.70;99.90;;;;;;5084010;28;20081;-30
2023/07/19 02:35:57;;;;;;;6.05;4.38;;;18.70;99.90;;;;;;5087821;28;20473;-31
2023/07/19 02:38:23;;;;;;;5.55;3.53;;;18.70;99.90;;;;;;5085806;28;20036;-32
2023/07/19 02:40:49;;;;;;;5.30;3.60;;;18.70;99.90;;;;;;5084873;28;20032;-34
2023/07/19 02:43:15;;;;;;;6.28;4.45;;;18.70;99.90;;;;;;5103715;27;20057;-33
2023/07/19 02:45:42;;;;;;;7.15;4.22;;;18.60;99.90;;;;;;5086047;28;20627;-32
2023/07/19 02:48:07;;;;;;;6.00;3.97;;;18.60;99.90;;;;;;5083845;28;20037;-30
2023/07/19 02:50:33;;;;;;;6.53;3.63;;;18.60;99.90;;;;;;5087657;28;20064;-31
2023/07/19 02:52:59;;;;;;;5.95;4.00;;;18.50;99.90;;;;;;5084607;28;20043;-30
2023/07/19 02:55:25;;;;;;;5.03;3.70;;;18.60;99.90;;;;;;5085062;28;20036;-33
2023/07/19 02:57:50;;;;;;;6.03;3.80;;;18.60;99.90;;;;;;5085463;28;20474;-30
2023/07/19 03:00:16;;;;;;;6.55;4.35;;;18.60;99.90;;;;;;5089904;28;20036;-30
2023/07/19 03:02:42;;;;;;;6.65;4.22;;;18.50;99.90;;;;;;5066032;28;20040;-30
2023/07/19 03:05:07;;;;;;;5.78;4.20;;;18.40;99.90;;;;;;5098316;27;20118;-33
2023/07/19 03:07:33;;;;;;;5.45;3.83;;;18.20;99.90;;;;;;5064738;28;20037;-32
2023/07/19 03:09:59;;;;;;;6.75;3.90;;;18.20;99.90;;;;;;5065084;28;20047;-33
2023/07/19 03:12:25;;;;;;;6.95;4.40;;;18.30;99.90;;;;;;5063954;28;20028;-30
2023/07/19 03:14:51;;;;;;;6.45;4.45;;;18.30;99.90;;;;;;5064187;28;20051;-33
2023/07/19 03:17:17;;;;;;;8.88;4.22;;;18.20;99.90;;;;;;5067085;28;20033;-31
2023/07/19 03:19:47;;;;;;;8.63;4.50;;;18.30;99.90;;;;;;5068325;28;20033;-31
2023/07/19 03:22:12;;;;;;;6.53;4.38;;;18.30;99.90;;;;;;5061156;28;20029;-30
2023/07/19 03:24:38;;;;;;;6.70;3.78;;;18.40;99.90;;;;;;5068026;28;20398;-30
2023/07/19 03:27:04;;;;;;;5.25;3.70;;;18.40;99.90;;;;;;5064454;28;20035;-30
2023/07/19 03:29:30;;;;;;;6.70;3.75;;;18.40;99.90;;;;;;5071461;28;20029;-30
2023/07/19 03:31:56;;;;;;;7.18;4.05;;;18.40;99.90;;;;;;5061295;28;20031;-30
2023/07/19 03:34:21;;;;;;;6.35;4.10;;;18.20;99.90;;;;;;5081368;28;20064;-30
2023/07/19 03:36:47;;;;;;;6.40;4.18;;;18.30;99.90;;;;;;5065861;28;20032;-34
2023/07/19 03:39:13;;;;;;;7.72;4.15;;;18.30;99.90;;;;;;5065180;28;20482;-32
2023/07/19 03:41:39;;;;;;;7.40;4.05;;;18.20;99.90;;;;;;5062432;28;20039;-30
2023/07/19 03:44:05;;;;;;;10.73;4.00;;;18.10;99.90;;;;;;5065533;28;20029;-30
2023/07/19 03:46:31;;;;;;;9.43;4.05;;;18.00;99.90;;;;;;5061911;28;20025;-29
2023/07/19 03:48:56;;;;;;;6.88;3.35;;;18.10;99.90;;;;;;5067805;28;20468;-31
2023/07/19 03:51:22;;;;;;;6.03;3.60;;;18.10;99.90;;;;;;5060276;28;20036;-30
2023/07/19 03:53:48;;;;;;;6.18;4.05;;;18.10;99.90;;;;;;5068431;28;20058;-32
2023/07/19 03:56:13;;;;;;;7.88;3.88;;;18.10;99.90;;;;;;5063923;28;20052;-31
2023/07/19 03:58:42;;;;;;;6.85;3.88;;;18.20;99.90;;;;;;5063792;28;20039;-31
2023/07/19 04:01:08;;;;;;;5.93;3.83;;;18.20;99.90;;;;;;5061824;28;20411;-30
2023/07/19 04:03:33;;;;;;;4.78;3.85;;;18.10;99.90;;;;;;5060555;28;20040;-30
2023/07/19 04:05:59;;;;;;;5.28;4.10;;;18.20;99.90;;;;;;5065526;28;20031;-30
2023/07/19 04:08:25;;;;;;;6.03;3.72;;;18.20;99.90;;;;;;5061699;28;20032;-32
2023/07/19 04:10:51;;;;;;;7.50;4.32;;;18.20;99.90;;;;;;5063298;28;20061;-34
2023/07/19 04:13:17;;;;;;;7.10;4.35;;;18.20;99.90;;;;;;5060279;28;20459;-31
2023/07/19 04:15:43;;;;;;;7.55;4.38;;;18.20;99.90;;;;;;5060393;28;20032;-34
2023/07/19 04:18:09;;;;;;;7.72;4.78;;;18.20;99.90;;;;;;5067447;28;20043;-32
2023/07/19 04:20:36;;;;;;;6.93;4.13;;;18.20;99.90;;;;;;5062317;28;20021;-32
2023/07/19 04:23:03;;;;;;;8.10;4.13;;;18.20;99.90;;;;;;5064897;28;20516;-35
2023/07/19 04:25:30;;;;;;;6.33;3.93;;;18.10;99.90;;;;;;5078883;28;20024;-30
2023/07/19 04:27:56;;;;;;;8.57;5.32;;;18.10;99.90;;;;;;5065838;28;20432;-31
2023/07/19 04:30:22;;;;;;;6.00;4.38;;;18.10;99.90;;;;;;5063893;28;20039;-32
2023/07/19 04:32:48;;;;;;;6.75;4.38;;;18.10;99.90;;;;;;5059299;28;20041;-32
2023/07/19 04:35:14;;;;;;;7.43;4.78;;;18.10;99.90;;;;;;5075010;28;20028;-31
2023/07/19 04:37:41;;;;;;;6.47;4.20;;;18.10;99.90;;;;;;5066605;28;20029;-32
2023/07/19 04:40:10;;;;;;;6.40;4.38;;;18.20;99.90;;;;;;5080991;28;20032;-30
2023/07/19 04:42:36;;;;;;;10.68;4.45;;;18.20;99.90;;;;;;5077902;28;20028;-32
2023/07/19 04:45:02;;;;;;;8.13;4.95;;;18.30;99.90;;;;;;5093341;28;20531;-32
2023/07/19 04:47:28;;;;;;;7.80;5.32;;;18.30;99.90;;;;;;5062427;28;20056;-31
2023/07/19 04:49:54;;;;;;;8.35;5.30;;;18.30;99.90;;;;;;5065252;28;20029;-31
2023/07/19 04:52:20;;;;;;;7.97;5.82;;;18.30;99.90;;;;;;5066442;28;20493;-31
2023/07/19 04:54:48;;;;;;;9.18;5.00;;;18.30;99.90;;;;;;5064679;28;20040;-34
2023/07/19 04:57:15;;;;;;;8.13;4.82;;;18.40;99.90;;;;;;5064456;28;20398;-30
2023/07/19 04:59:41;;;;;;;7.50;4.70;;;18.50;99.90;;;;;;5057533;28;20036;-31
2023/07/19 05:02:07;;;;;;;6.72;4.53;;;18.50;99.90;;;;;;5065710;28;20626;-31
2023/07/19 05:04:33;;;;;;;8.65;4.72;;;18.60;99.90;;;;;;5060094;28;20025;-34
2023/07/19 05:06:59;;;;;;;10.77;5.85;;;18.60;99.90;;;;;;5063361;28;20025;-31
2023/07/19 05:09:25;;;;;;;9.63;5.45;;;18.70;99.90;;;;;;5063651;28;20094;-30
2023/07/19 05:11:51;;;;;;;7.28;5.05;;;18.80;99.90;;;;;;5068388;28;20021;-33
2023/07/19 05:14:17;;;;;;;7.75;5.32;;;18.80;99.90;;;;;;5069925;28;20017;-31
2023/07/19 05:16:43;;;;;;;9.68;5.18;;;18.80;99.90;;;;;;5061290;28;20025;-30
2023/07/19 05:19:09;;;;;;;8.63;5.40;;;18.80;99.90;;;;;;5084516;28;20060;-32
2023/07/19 05:21:35;;;;;;;7.47;5.53;;;18.80;99.90;;;;;;5066984;28;20037;-31
2023/07/19 05:24:01;;;;;;;9.80;5.65;;;18.80;99.90;;;;;;5068300;28;20037;-30
2023/07/19 05:26:26;;;;;;;9.32;5.38;;;18.90;99.90;;;;;;5064949;28;20021;-30
2023/07/19 05:28:52;;;;;;;10.80;6.13;;;18.90;99.90;;;;;;5064591;28;20060;-33
2023/07/19 05:31:19;;;;;;;10.93;6.65;;;19.00;99.90;;;;;;5066134;28;20037;-30
2023/07/19 05:33:45;;;;;;;10.20;5.72;;;19.10;99.90;;;;;;5065754;28;20020;-33
2023/07/19 05:36:11;;;;;;;9.43;5.95;;;19.20;99.90;;;;;;5066728;28;20028;-33
2023/07/19 05:38:36;;;;;;;9.38;5.47;;;19.30;99.90;;;;;;5095667;28;20767;-40
2023/07/19 05:41:03;;;;;;;8.32;5.93;;;19.30;99.90;;;;;;5065761;28;20119;-40
2023/07/19 05:43:29;;;;;;;10.82;6.57;;;19.40;99.90;;;;;;5063141;28;20094;-40
2023/07/19 05:46:05;;;;;;;9.80;6.40;;;19.50;99.90;;;;;;5062274;28;20075;-36
2023/07/19 05:48:32;;;;;;;10.85;5.55;;;19.60;99.90;;;;;;5075421;28;20469;-40
2023/07/19 05:50:58;;;;;;;8.00;5.55;;;19.70;99.90;;;;;;5062838;28;20024;-39
2023/07/19 05:53:24;;;;;;;9.55;5.82;;;19.90;99.90;;;;;;5062388;28;20501;-41
2023/07/19 05:55:52;;;;;;;7.43;4.95;;;19.90;99.90;;;;;;5066317;28;20032;-41
2023/07/19 05:58:18;;;;;;;9.45;6.05;;;20.00;99.90;;;;;;5075737;28;20035;-41
2023/07/19 06:00:44;;;;;;;9.90;5.63;;;20.00;99.90;;;;;;5068934;28;20035;-41
2023/07/19 06:03:10;;;;;;;7.95;5.68;;;20.10;99.90;;;;;;5061903;28;20021;-40
2023/07/19 06:05:36;;;;;;;9.02;5.53;;;20.30;99.90;;;;;;5084912;28;20671;-41
2023/07/19 06:08:02;;;;;;;7.85;6.03;;;20.40;99.90;;;;;;5083480;28;20090;-38
2023/07/19 06:10:27;;;;;;;8.75;5.70;;;20.50;99.90;;;;;;5066845;28;20029;-41
2023/07/19 06:12:53;;;;;;;13.32;6.30;;;20.50;99.90;;;;;;5068708;28;20036;-38
2023/07/19 06:15:19;;;;;;;10.35;5.53;;;20.70;99.90;;;;;;5083864;28;20486;-39
2023/07/19 06:17:45;;;;;;;8.63;5.40;;;20.80;99.90;;;;;;5065072;28;20028;-38
2023/07/19 06:20:11;;;;;;;11.65;6.07;;;20.90;99.90;;;;;;5067439;28;20032;-38
2023/07/19 06:22:37;;;;;;;8.68;5.75;;;21.00;99.90;;;;;;5062876;28;20599;-40
2023/07/19 06:25:03;;;;;;;8.82;5.22;;;21.10;99.90;;;;;;5067541;28;20029;-40
2023/07/19 06:27:29;;;;;;;9.35;5.80;;;21.10;99.90;;;;;;5067247;28;20757;-41
2023/07/19 06:29:55;;;;;;;8.45;5.00;;;21.20;99.90;;;;;;5064313;28;20033;-41
2023/07/19 06:32:20;;;;;;;8.50;5.35;;;21.40;99.90;;;;;;5060922;28;20450;-41
2023/07/19 06:34:47;;;;;;;7.43;4.93;;;21.50;99.90;;;;;;5066064;28;20021;-40
2023/07/19 06:37:13;;;;;;;7.47;4.95;;;21.70;99.90;;;;;;5060762;28;20036;-37
2023/07/19 06:39:39;;;;;;;5.80;3.92;;;21.60;99.90;;;;;;5062612;28;20073;-42
2023/07/19 06:42:05;;;;;;;8.63;4.13;;;21.60;99.90;;;;;;5065934;28;20024;-41
2023/07/19 06:44:31;;;;;;;6.60;4.28;;;21.70;99.90;;;;;;5064631;28;20447;-39
2023/07/19 06:46:59;;;;;;;6.22;4.53;;;21.80;99.90;;;;;;5058286;28;20036;-41
2023/07/19 06:49:25;;;;;;;9.40;4.60;;;21.80;99.90;;;;;;5060261;28;20036;-33
2023/07/19 06:51:50;;;;;;;5.00;3.75;;;21.70;99.90;;;;;;5060141;28;20032;-32
2023/07/19 06:54:16;;;;;;;7.93;4.05;;;21.60;99.90;;;;;;5066108;28;20045;-33
2023/07/19 06:56:42;;;;;;;7.45;4.47;;;21.50;99.90;;;;;;5062010;28;20725;-34
2023/07/19 06:59:08;;;;;;;4.90;3.88;;;21.70;99.90;;;;;;5065849;28;20501;-33
2023/07/19 07:01:34;;;;;;;6.07;3.88;;;21.70;99.90;;;;;;5059736;28;20502;-34
2023/07/19 07:03:59;;;;;;;6.38;4.28;;;21.70;99.90;;;;;;5062277;28;20540;-33
2023/07/19 07:06:25;;;;;;;7.88;3.88;;;21.80;99.90;;;;;;5058315;28;20442;-33
2023/07/19 07:08:51;;;;;;;5.43;4.10;;;22.00;99.90;;;;;;5061097;28;20114;-33
2023/07/19 07:11:16;;;;;;;6.05;3.78;;;21.90;99.90;;;;;;5062525;28;20500;-33
2023/07/19 07:13:42;;;;;;;5.75;3.90;;;21.80;99.90;;;;;;5062844;28;20028;-34
2023/07/19 07:16:08;;;;;;;6.18;3.58;;;22.00;99.90;;;;;;5059875;28;20024;-31
2023/07/19 07:18:33;;;;;;;6.13;3.92;;;22.00;99.90;;;;;;5061537;28;20036;-35
2023/07/19 07:20:59;;;;;;;5.50;3.80;;;22.30;99.90;;;;;;5062271;28;20031;-33
2023/07/19 07:23:25;;;;;;;5.07;3.65;;;22.60;99.90;;;;;;5058705;28;20117;-32
2023/07/19 07:25:54;;;;;;;5.65;3.88;;;22.70;99.90;;;;;;5062320;28;20572;-35
2023/07/19 07:28:20;;;;;;;6.32;3.45;;;22.90;99.90;;;;;;5053405;28;20056;-33
2023/07/19 07:30:45;;;;;;;5.68;3.10;;;23.00;99.90;;;;;;5063365;28;21699;-35
2023/07/19 07:33:11;;;;;;;4.22;3.80;;;23.00;99.90;;;;;;5060498;28;20082;-33
2023/07/19 07:35:37;;;;;;;4.55;3.45;;;23.10;99.90;;;;;;5059129;28;20040;-35
2023/07/19 07:38:03;;;;;;;5.60;3.72;;;23.10;99.90;;;;;;5059894;28;20020;-33
2023/07/19 07:40:29;;;;;;;8.05;3.30;;;23.30;99.90;;;;;;5064305;28;20078;-35
2023/07/19 07:42:55;;;;;;;5.88;3.95;;;23.30;99.90;;;;;;5059962;28;20567;-32
2023/07/19 07:45:21;;;;;;;5.95;3.70;;;23.30;99.90;;;;;;5057985;28;20060;-34
2023/07/19 07:47:47;;;;;;;5.68;3.30;;;23.50;99.90;;;;;;5062486;28;20028;-32
2023/07/19 07:50:13;;;;;;;7.60;3.65;;;23.70;99.90;;;;;;5063048;28;20028;-32
2023/07/19 07:52:39;;;;;;;9.68;4.60;;;23.90;99.90;;;;;;5060179;28;20036;-33
2023/07/19 07:55:06;;;;;;;5.00;3.60;;;23.90;99.90;;;;;;5056833;28;20036;-32
2023/07/19 07:57:36;;;;;;;5.68;3.92;;;23.70;99.90;;;;;;5057009;28;20429;-34
2023/07/19 08:00:02;;;;;;;6.00;4.03;;;23.90;99.90;;;;;;5053002;28;20029;-32
2023/07/19 08:02:31;;;;;;;7.80;3.95;;;24.00;99.90;;;;;;5057994;28;20051;-31
2023/07/19 08:04:57;;;;;;;4.28;3.88;;;23.90;99.90;;;;;;5058702;28;20040;-35
2023/07/19 08:07:25;;;;;;;8.38;3.95;;;24.00;99.90;;;;;;5064851;28;20028;-30
2023/07/19 08:09:52;;;;;;;5.63;3.47;;;24.10;99.90;;;;;;5062319;28;20029;-30
2023/07/19 08:12:18;;;;;;;5.60;3.85;;;24.30;99.90;;;;;;5056893;28;20094;-31
2023/07/19 08:14:44;;;;;;;6.63;4.00;;;24.50;99.90;;;;;;5063195;28;20032;-30
2023/07/19 08:17:10;;;;;;;7.20;3.53;;;24.70;99.90;;;;;;5064310;28;20028;-31
2023/07/19 08:19:36;;;;;;;7.93;3.80;;;24.40;99.90;;;;;;5064654;28;20104;-30
2023/07/19 08:22:04;;;;;;;4.32;3.90;;;24.10;99.90;;;;;;5060112;28;20135;-32
2023/07/19 08:24:30;;;;;;;6.78;3.70;;;23.90;99.90;;;;;;5062508;28;20028;-32
2023/07/19 08:26:55;;;;;;;5.07;3.90;;;23.70;99.90;;;;;;5061069;28;20360;-30
2023/07/19 08:29:23;;;;;;;5.68;3.58;;;23.50;99.90;;;;;;5063449;28;20028;-30
2023/07/19 08:31:49;;;;;;;;;;;23.50;99.90;;;;;;5062787;28;20033;-31
2023/07/19 08:34:14;;;;;;;5.85;3.55;;;23.60;99.90;;;;;;5077414;28;19916;-31
2023/07/19 08:36:40;;;;;;;5.57;3.95;;;23.60;99.90;;;;;;5055331;28;20099;-31
2023/07/19 08:39:06;;;;;;;8.00;3.33;;;23.80;99.90;;;;;;5066387;28;20431;-31
2023/07/19 08:41:34;;;;;;;6.20;3.42;;;23.90;99.90;;;;;;5057346;28;20056;-33
2023/07/19 08:44:00;;;;;;;8.07;3.85;;;24.10;99.90;;;;;;5072971;28;20024;-34
2023/07/19 08:46:26;;;;;;;6.00;3.58;;;24.30;99.90;;;;;;5063641;28;20456;-32
2023/07/19 08:48:52;;;;;;;5.45;3.75;;;24.60;99.90;;;;;;5062282;28;20028;-30
2023/07/19 08:51:18;;;;;;;6.50;3.65;;;24.50;99.90;;;;;;5066372;28;20135;-29
2023/07/19 08:53:45;;;;;;;5.20;3.28;;;24.80;99.90;;;;;;5066192;28;20036;-36
2023/07/19 08:56:17;;;;;;;6.72;3.10;;;24.50;99.90;;;;;;5063982;28;20044;-34
2023/07/19 08:58:43;;;;;;;4.63;2.67;;;24.30;99.90;;;;;;5061404;28;20029;-31
2023/07/19 09:01:11;;;;;;;6.25;3.40;;;24.10;99.90;;;;;;5060914;28;20553;-32
2023/07/19 09:03:37;;;;;;;5.03;3.30;;;24.40;99.90;;;;;;5063788;28;20067;-31
2023/07/19 09:06:03;;;;;;;7.25;3.17;;;24.40;99.90;;;;;;5077348;28;20025;-30
2023/07/19 09:08:37;;;;;;;5.88;3.40;;;24.50;99.90;;;;;;5063979;28;20051;-36
2023/07/19 09:11:03;;;;;;;4.35;3.22;;;24.70;99.90;;;;;;5059816;28;20425;-32
2023/07/19 09:13:33;;;;;;;4.50;3.53;;;24.70;99.90;;;;;;5075681;28;20024;-33
2023/07/19 09:16:02;;;;;;;4.55;3.00;;;25.00;99.90;;;;;;5057321;28;20483;-33
2023/07/19 09:18:30;;;;;;;5.57;3.70;;;25.10;99.90;;;;;;5071766;28;20067;-32
2023/07/19 09:20:59;;;;;;;5.43;4.03;;;25.20;99.90;;;;;;5060236;28;20111;-33
2023/07/19 09:23:25;;;;;;;7.50;3.58;;;25.50;99.90;;;;;;5059013;28;20501;-33
2023/07/19 09:25:55;;;;;;;4.95;3.20;;;25.50;99.90;;;;;;5053681;28;20029;-33
2023/07/19 09:28:22;;;;;;;5.10;3.30;;;26.00;99.90;;;;;;5073293;28;20036;-33
2023/07/19 09:30:56;;;;;;;5.00;3.40;;;25.80;99.90;;;;;;5053834;28;20146;-33
2023/07/19 09:33:22;;;;;;;5.35;3.15;;;25.70;99.90;;;;;;5057980;28;20033;-38
2023/07/19 09:35:53;;;;;;;5.22;3.47;;;25.10;99.90;;;;;;5060043;28;20032;-33
2023/07/19 09:38:21;;;;;;;4.68;3.40;;;24.60;99.90;;;;;;5058779;28;20039;-33
2023/07/19 09:40:46;;;;;;;6.68;3.40;;;24.60;99.90;;;;;;5073335;28;20386;-33
2023/07/19 09:43:15;;;;;;;4.95;3.70;;;24.80;99.90;;;;;;5058978;28;20029;-34
2023/07/19 09:45:42;;;;;;;6.25;3.47;;;24.90;99.90;;;;;;5057419;28;20017;-33
2023/07/19 09:48:08;;;;;;;5.03;3.38;;;25.30;99.90;;;;;;5064311;28;20025;-32
2023/07/19 09:50:39;;;;;;;6.72;3.63;;;25.20;99.90;;;;;;5062775;28;20039;-33
2023/07/19 09:53:08;;;;;;;5.10;3.33;;;25.40;99.90;;;;;;5057031;28;20547;-32
2023/07/19 09:55:35;;;;;;;4.35;3.30;;;25.70;99.90;;;;;;5062732;28;20029;-34
2023/07/19 09:58:05;;;;;;;4.03;3.17;;;25.80;99.90;;;;;;5066338;28;20028;-32
2023/07/19 10:00:30;;;;;;;5.43;3.20;;;25.90;99.90;;;;;;5062638;28;20363;-33
2023/07/19 10:02:59;;;;;;;5.05;3.20;;;25.90;99.90;;;;;;5065514;28;20032;-33
2023/07/19 10:05:31;;;;;;;4.60;2.95;;;26.10;99.90;;;;;;5074725;28;20040;-33
2023/07/19 10:08:05;;;;;;;5.95;3.03;;;26.30;99.90;;;;;;5056792;28;20073;-35
2023/07/19 10:10:39;;;;;;;6.30;2.88;;;26.50;99.90;;;;;;5060574;28;20400;-33
2023/07/19 10:13:06;;;;;;;5.80;3.13;;;26.50;99.90;;;;;;5062099;28;20070;-33
2023/07/19 10:15:32;;;;;;;4.90;2.78;;;26.40;99.90;;;;;;5062866;28;20029;-34
2023/07/19 10:17:58;;;;;;;4.57;3.15;;;26.50;99.90;;;;;;5064730;28;20040;-36
2023/07/19 10:20:35;;;;;;;6.22;3.03;;;26.30;99.90;;;;;;5066960;28;20028;-41
2023/07/19 10:23:06;;;;;;;5.57;2.92;;;26.30;99.90;;;;;;5078633;28;20516;-40
2023/07/19 10:25:37;;;;;;;3.78;3.00;;;26.50;99.90;;;;;;5059734;28;20615;-40
2023/07/19 10:28:09;;;;;;;3.10;2.50;;;26.70;99.90;;;;;;5056457;28;20086;-38
2023/07/19 10:30:53;;;;;;;5.90;2.47;;;27.10;99.90;;;;;;5059320;28;20151;-40
2023/07/19 10:33:21;;;;;;;4.50;2.80;;;27.80;99.90;;;;;;5059449;28;20052;-40
2023/07/19 10:35:49;;;;;;;5.38;2.83;;;27.50;99.90;;;;;;5063990;28;20116;-39
2023/07/19 10:38:16;;;;;;;2.80;2.33;;;26.90;99.90;;;;;;5062269;28;20053;-39
2023/07/19 10:40:48;;;;;;;4.88;2.95;;;26.70;99.90;;;;;;5062676;28;20036;-41
2023/07/19 10:43:14;;;;;;;3.70;2.50;;;27.00;99.90;;;;;;5066054;28;20028;-37
2023/07/19 10:45:41;;;;;;;6.47;2.83;;;26.70;99.90;;;;;;5067330;28;20028;-40
2023/07/19 10:48:09;;;;;;;3.88;2.50;;;26.60;99.90;;;;;;5064187;28;20029;-39
2023/07/19 10:50:35;;;;;;;4.07;2.70;;;26.60;99.90;;;;;;5074879;28;20522;-41
2023/07/19 10:53:00;;;;;;;6.80;2.90;;;26.70;99.90;;;;;;5066096;28;20100;-41
2023/07/19 10:55:29;;;;;;;5.18;2.78;;;27.10;99.90;;;;;;5067960;28;20052;-40
2023/07/19 10:57:55;;;;;;;6.22;2.78;;;27.50;99.90;;;;;;5061982;28;20025;-41
2023/07/19 11:00:21;;;;;;;4.25;2.60;;;27.70;99.90;;;;;;5059518;28;20054;-41
2023/07/19 11:02:47;;;;;;;3.90;2.67;;;27.50;99.90;;;;;;5060461;28;20490;-42
2023/07/19 11:05:13;;;;;;;4.60;2.75;;;27.60;99.90;;;;;;5065039;28;20693;-37
2023/07/19 11:07:38;;;;;;;4.65;2.55;;;27.70;99.90;;;;;;5060737;28;20029;-41
2023/07/19 11:10:07;;;;;;;3.33;2.75;;;27.60;99.90;;;;;;5076660;28;20378;-40
2023/07/19 11:12:32;;;;;;;3.47;2.90;;;27.70;99.90;;;;;;5065688;28;20036;-39
2023/07/19 11:15:00;;;;;;;4.70;2.70;;;27.90;99.90;;;;;;5065204;28;20031;-40
2023/07/19 11:17:28;;;;;;;3.33;2.90;;;27.50;99.90;;;;;;5062303;28;20027;-41
2023/07/19 11:19:55;;;;;;;5.85;2.70;;;27.70;99.90;;;;;;5067368;28;20028;-39
2023/07/19 11:22:22;;;;;;;6.10;2.28;;;27.80;99.90;;;;;;5060345;28;20032;-40
2023/07/19 11:24:49;;;;;;;4.30;2.60;;;28.00;99.90;;;;;;5060674;28;20037;-42
2023/07/19 11:27:17;;;;;;;3.42;2.70;;;27.80;99.90;;;;;;5061038;28;20033;-41
2023/07/19 11:29:43;;;;;;;;;;;27.90;99.90;;;;;;5063040;28;20079;-32
2023/07/19 11:32:20;;;;;;;5.15;2.92;;;27.70;99.90;;;;;;5062447;28;19924;-32
2023/07/19 11:34:56;;;;;;;;;;;27.80;99.90;;;;;;5062124;28;20371;-32
2023/07/19 11:37:29;;;;;;;2.85;2.58;;;27.90;99.90;;;;;;5061112;28;19916;-35
2023/07/19 11:39:59;;;;;;;3.83;2.60;;;28.20;99.90;;;;;;5060962;28;20033;-32
2023/07/19 11:42:45;;;;;;;4.15;2.90;;;28.00;99.90;;;;;;5060170;28;20032;-31
2023/07/19 11:45:19;;;;;;;3.65;2.67;;;27.80;99.90;;;;;;5064176;28;20035;-34
2023/07/19 11:47:48;;;;;;;5.15;2.53;;;28.20;99.90;;;;;;5060450;28;20041;-32
2023/07/19 11:50:15;;;;;;;15.57;3.10;;;28.70;99.90;;;;;;5091862;28;20491;-34
2023/07/19 11:52:43;;;;;;;4.90;2.97;;;28.80;99.90;;;;;;5065108;28;20120;-31
2023/07/19 11:55:11;;;;;;;3.42;2.50;;;28.60;99.90;;;;;;5064864;28;20041;-32
2023/07/19 11:57:40;;;;;;;3.50;2.67;;;28.70;99.90;;;;;;5062543;28;20020;-32
2023/07/19 12:00:07;;;;;;;4.43;2.60;;;28.10;99.90;;;;;;5061822;28;20379;-32
2023/07/19 12:02:34;;;;;;;3.70;2.78;;;27.80;99.90;;;;;;5058061;28;20036;-33
2023/07/19 12:04:59;;;;;;;8.18;2.05;;;28.10;99.90;;;;;;5074777;28;20068;-35
2023/07/19 12:07:25;;;;;;;3.33;2.40;;;27.60;99.90;;;;;;5061350;28;20064;-31
2023/07/19 12:09:51;;;;;;;4.07;2.55;;;27.50;99.90;;;;;;5060841;28;20039;-34
2023/07/19 12:12:17;;;;;;;3.10;1.90;;;27.80;99.90;;;;;;5060675;28;20037;-35
2023/07/19 12:14:42;;;;;;;9.45;2.40;;;28.10;99.90;;;;;;5059680;28;20029;-34
2023/07/19 12:17:09;;;;;;;4.03;2.50;;;28.20;99.90;;;;;;5058047;28;20090;-32
2023/07/19 12:19:35;;;;;;;3.80;2.20;;;28.10;99.90;;;;;;5058797;28;20036;-32
2023/07/19 12:22:00;;;;;;;4.20;2.38;;;28.10;99.90;;;;;;5055135;28;20044;-33
2023/07/19 12:24:26;;;;;;;5.32;2.58;;;27.90;99.90;;;;;;5059776;28;20028;-32
2023/07/19 12:26:52;;;;;;;4.25;2.05;;;28.00;99.90;;;;;;5056841;28;20028;-35
2023/07/19 12:29:17;;;;;;;6.47;2.63;;;28.50;99.90;;;;;;5063809;28;20057;-32
2023/07/19 12:31:44;;;;;;;3.95;2.25;;;28.20;99.90;;;;;;5058794;28;20464;-31
2023/07/19 12:34:10;;;;;;;4.30;2.88;;;28.10;99.90;;;;;;5057543;28;20032;-32
2023/07/19 12:36:35;;;;;;;3.88;2.20;;;28.10;99.90;;;;;;5060148;28;20025;-32
2023/07/19 12:39:01;;;;;;;4.30;2.35;;;27.90;99.90;;;;;;5061058;28;20033;-38
2023/07/19 12:41:27;;;;;;;4.60;2.50;;;27.90;99.90;;;;;;5062055;28;20677;-41
2023/07/19 12:43:53;;;;;;;4.40;2.05;;;28.30;99.90;;;;;;5058437;28;20390;-41
2023/07/19 12:46:19;;;;;;;4.07;2.00;;;27.80;99.90;;;;;;5064549;28;20043;-40